sensor_id;sensor_type;location;lat;lon;timestamp;pressure;altitude;pressure_sealevel;temperature;humidity
36964;BME280;22878;48.616;35.326;2023-04-27T00:02:04;100309.78;;;14.09;100.00
36964;BME280;22878;48.616;35.326;2023-04-27T00:04:30;100308.88;;;14.12;100.00
36964;BME280;22878;48.616;35.326;2023-04-27T00:06:56;100309.77;;;14.10;100.00
36964;BME280;22878;48.616;35.326;2023-04-27T00:09:22;100309.08;;;14.22;100.00
36964;BME280;22878;48.616;35.326;2023-04-27T00:11:47;100311.58;;;14.25;100.00
36964;BME280;22878;48.616;35.326;2023-04-27T00:14:13;100309.79;;;14.30;100.00
36964;BME280;22878;48.616;35.326;2023-04-27T00:16:38;100309.06;;;14.32;100.00
36964;BME280;22878;48.616;35.326;2023-04-27T00:19:04;100306.11;;;14.34;100.00
36964;BME280;22878;48.616;35.326;2023-04-27T00:21:29;100301.58;;;14.33;100.00
36964;BME280;22878;48.616;35.326;2023-04-27T00:23:56;100299.42;;;14.24;100.00
36964;BME280;22878;48.616;35.326;2023-04-27T00:26:21;100299.77;;;14.08;100.00
36964;BME280;22878;48.616;35.326;2023-04-27T00:28:47;100299.09;;;14.10;100.00
36964;BME280;22878;48.616;35.326;2023-04-27T00:31:12;100296.55;;;14.18;100.00
36964;BME280;22878;48.616;35.326;2023-04-27T00:33:38;100295.02;;;14.23;100.00
36964;BME280;22878;48.616;35.326;2023-04-27T00:36:04;100292.73;;;14.29;100.00
36964;BME280;22878;48.616;35.326;2023-04-27T00:38:29;100292.52;;;14.30;100.00
36964;BME280;22878;48.616;35.326;2023-04-27T00:41:02;100295.40;;;14.27;100.00
36964;BME280;22878;48.616;35.326;2023-04-27T00:43:28;100297.40;;;14.20;100.00
36964;BME280;22878;48.616;35.326;2023-04-27T00:45:53;100298.05;;;14.20;100.00
36964;BME280;22878;48.616;35.326;2023-04-27T00:48:19;100301.90;;;14.28;100.00
36964;BME280;22878;48.616;35.326;2023-04-27T00:50:44;100301.54;;;14.27;100.00
36964;BME280;22878;48.616;35.326;2023-04-27T00:53:10;100307.29;;;14.26;100.00
36964;BME280;22878;48.616;35.326;2023-04-27T00:55:36;100301.20;;;14.19;100.00
36964;BME280;22878;48.616;35.326;2023-04-27T00:58:01;100295.96;;;14.09;100.00
36964;BME280;22878;48.616;35.326;2023-04-27T01:00:27;100300.23;;;14.10;100.00
36964;BME280;22878;48.616;35.326;2023-04-27T01:02:54;100305.26;;;14.07;100.00
36964;BME280;22878;48.616;35.326;2023-04-27T01:05:20;100315.19;;;13.97;100.00
36964;BME280;22878;48.616;35.326;2023-04-27T01:07:47;100300.44;;;13.89;100.00
36964;BME280;22878;48.616;35.326;2023-04-27T01:10:12;100297.75;;;13.92;100.00
36964;BME280;22878;48.616;35.326;2023-04-27T01:12:38;100289.70;;;13.90;100.00
36964;BME280;22878;48.616;35.326;2023-04-27T01:15:05;100289.34;;;13.79;100.00
36964;BME280;22878;48.616;35.326;2023-04-27T01:17:31;100294.55;;;13.78;100.00
36964;BME280;22878;48.616;35.326;2023-04-27T01:19:56;100290.83;;;13.78;100.00
36964;BME280;22878;48.616;35.326;2023-04-27T01:22:23;100289.89;;;13.78;100.00
36964;BME280;22878;48.616;35.326;2023-04-27T01:24:49;100282.84;;;13.79;100.00
36964;BME280;22878;48.616;35.326;2023-04-27T01:27:15;100280.98;;;13.76;100.00
36964;BME280;22878;48.616;35.326;2023-04-27T01:29:40;100272.05;;;13.71;100.00
36964;BME280;22878;48.616;35.326;2023-04-27T01:32:06;100263.09;;;13.69;100.00
36964;BME280;22878;48.616;35.326;2023-04-27T01:34:31;100261.52;;;13.69;100.00
36964;BME280;22878;48.616;35.326;2023-04-27T01:36:57;100261.06;;;13.69;100.00
36964;BME280;22878;48.616;35.326;2023-04-27T01:39:22;100261.94;;;13.69;100.00
36964;BME280;22878;48.616;35.326;2023-04-27T01:41:48;100257.67;;;13.68;100.00
36964;BME280;22878;48.616;35.326;2023-04-27T01:44:13;100259.02;;;13.65;100.00
36964;BME280;22878;48.616;35.326;2023-04-27T01:46:39;100257.79;;;13.57;100.00
36964;BME280;22878;48.616;35.326;2023-04-27T01:49:05;100255.46;;;13.62;100.00
36964;BME280;22878;48.616;35.326;2023-04-27T01:51:30;100252.84;;;13.60;100.00
36964;BME280;22878;48.616;35.326;2023-04-27T01:53:57;100249.42;;;13.55;100.00
36964;BME280;22878;48.616;35.326;2023-04-27T01:56:22;100248.08;;;13.64;100.00
36964;BME280;22878;48.616;35.326;2023-04-27T01:58:48;100246.73;;;13.69;100.00
36964;BME280;22878;48.616;35.326;2023-04-27T02:01:13;100241.41;;;13.65;100.00
36964;BME280;22878;48.616;35.326;2023-04-27T02:03:39;100245.48;;;13.60;100.00
36964;BME280;22878;48.616;35.326;2023-04-27T02:06:05;100248.52;;;13.69;100.00
36964;BME280;22878;48.616;35.326;2023-04-27T02:08:30;100246.55;;;13.70;100.00
36964;BME280;22878;48.616;35.326;2023-04-27T02:10:56;100262.77;;;13.66;100.00
36964;BME280;22878;48.616;35.326;2023-04-27T02:13:21;100258.79;;;13.55;100.00
36964;BME280;22878;48.616;35.326;2023-04-27T02:15:47;100252.20;;;13.53;100.00
36964;BME280;22878;48.616;35.326;2023-04-27T02:18:12;100255.42;;;13.56;100.00
36964;BME280;22878;48.616;35.326;2023-04-27T02:20:40;100259.73;;;13.62;100.00
36964;BME280;22878;48.616;35.326;2023-04-27T02:23:05;100257.10;;;13.71;100.00
36964;BME280;22878;48.616;35.326;2023-04-27T02:25:31;100253.01;;;13.64;100.00
36964;BME280;22878;48.616;35.326;2023-04-27T02:27:56;100258.95;;;13.61;100.00
36964;BME280;22878;48.616;35.326;2023-04-27T02:30:22;100257.27;;;13.61;100.00
36964;BME280;22878;48.616;35.326;2023-04-27T02:32:47;100247.38;;;13.51;100.00
36964;BME280;22878;48.616;35.326;2023-04-27T02:35:13;100231.25;;;13.49;100.00
36964;BME280;22878;48.616;35.326;2023-04-27T02:37:39;100239.35;;;13.46;100.00
36964;BME280;22878;48.616;35.326;2023-04-27T02:40:05;100225.42;;;13.47;100.00
36964;BME280;22878;48.616;35.326;2023-04-27T02:42:32;100219.31;;;13.51;100.00
36964;BME280;22878;48.616;35.326;2023-04-27T02:44:57;100220.70;;;13.52;100.00
36964;BME280;22878;48.616;35.326;2023-04-27T02:47:23;100220.31;;;13.53;100.00
36964;BME280;22878;48.616;35.326;2023-04-27T02:49:48;100226.17;;;13.52;100.00
36964;BME280;22878;48.616;35.326;2023-04-27T02:52:14;100222.88;;;13.56;100.00
36964;BME280;22878;48.616;35.326;2023-04-27T02:54:40;100228.61;;;13.70;100.00
36964;BME280;22878;48.616;35.326;2023-04-27T02:57:05;100243.52;;;13.64;100.00
36964;BME280;22878;48.616;35.326;2023-04-27T02:59:31;100247.59;;;13.65;100.00
36964;BME280;22878;48.616;35.326;2023-04-27T03:01:57;100259.13;;;13.64;100.00
36964;BME280;22878;48.616;35.326;2023-04-27T03:04:22;100246.20;;;13.58;100.00
36964;BME280;22878;48.616;35.326;2023-04-27T03:06:51;100265.97;;;13.63;100.00
36964;BME280;22878;48.616;35.326;2023-04-27T03:09:16;100259.95;;;13.68;100.00
36964;BME280;22878;48.616;35.326;2023-04-27T03:11:42;100261.10;;;13.71;100.00
36964;BME280;22878;48.616;35.326;2023-04-27T03:14:07;100257.59;;;13.76;100.00
36964;BME280;22878;48.616;35.326;2023-04-27T03:16:33;100255.14;;;13.85;100.00
36964;BME280;22878;48.616;35.326;2023-04-27T03:18:59;100254.48;;;13.89;100.00
36964;BME280;22878;48.616;35.326;2023-04-27T03:21:24;100256.70;;;14.00;100.00
36964;BME280;22878;48.616;35.326;2023-04-27T03:23:51;100260.52;;;14.09;100.00
36964;BME280;22878;48.616;35.326;2023-04-27T03:26:23;100263.98;;;14.20;100.00
36964;BME280;22878;48.616;35.326;2023-04-27T03:28:48;100263.98;;;14.18;100.00
36964;BME280;22878;48.616;35.326;2023-04-27T03:31:14;100261.68;;;14.15;100.00
36964;BME280;22878;48.616;35.326;2023-04-27T03:33:40;100260.00;;;14.24;100.00
36964;BME280;22878;48.616;35.326;2023-04-27T03:36:06;100262.39;;;14.31;100.00
36964;BME280;22878;48.616;35.326;2023-04-27T03:38:33;100253.64;;;14.37;100.00
36964;BME280;22878;48.616;35.326;2023-04-27T03:40:59;100256.23;;;14.37;100.00
36964;BME280;22878;48.616;35.326;2023-04-27T03:43:25;100261.77;;;14.40;100.00
36964;BME280;22878;48.616;35.326;2023-04-27T03:45:51;100261.33;;;14.42;100.00
36964;BME280;22878;48.616;35.326;2023-04-27T03:48:17;100271.71;;;14.40;100.00
36964;BME280;22878;48.616;35.326;2023-04-27T03:50:43;100263.48;;;14.41;100.00
36964;BME280;22878;48.616;35.326;2023-04-27T03:53:09;100257.98;;;14.44;100.00
36964;BME280;22878;48.616;35.326;2023-04-27T03:55:43;100257.25;;;14.42;100.00
36964;BME280;22878;48.616;35.326;2023-04-27T03:58:10;100256.69;;;14.43;100.00
36964;BME280;22878;48.616;35.326;2023-04-27T04:00:38;100253.98;;;14.56;100.00
36964;BME280;22878;48.616;35.326;2023-04-27T04:03:05;100258.45;;;14.58;100.00
36964;BME280;22878;48.616;35.326;2023-04-27T04:05:33;100258.96;;;14.52;100.00
36964;BME280;22878;48.616;35.326;2023-04-27T04:07:59;100265.59;;;14.47;100.00
36964;BME280;22878;48.616;35.326;2023-04-27T04:10:24;100272.08;;;14.47;100.00
36964;BME280;22878;48.616;35.326;2023-04-27T04:12:51;100269.12;;;14.46;100.00
36964;BME280;22878;48.616;35.326;2023-04-27T04:15:17;100269.74;;;14.44;100.00
36964;BME280;22878;48.616;35.326;2023-04-27T04:17:42;100264.86;;;14.40;100.00
36964;BME280;22878;48.616;35.326;2023-04-27T04:20:08;100262.25;;;14.44;100.00
36964;BME280;22878;48.616;35.326;2023-04-27T04:22:37;100246.60;;;14.52;100.00
36964;BME280;22878;48.616;35.326;2023-04-27T04:25:04;100244.45;;;14.61;100.00
36964;BME280;22878;48.616;35.326;2023-04-27T04:27:29;100255.52;;;14.66;100.00
36964;BME280;22878;48.616;35.326;2023-04-27T04:29:58;100260.42;;;14.57;100.00
36964;BME280;22878;48.616;35.326;2023-04-27T04:32:25;100253.70;;;14.64;100.00
36964;BME280;22878;48.616;35.326;2023-04-27T04:34:55;100246.64;;;14.71;100.00
36964;BME280;22878;48.616;35.326;2023-04-27T04:37:21;100241.02;;;14.72;100.00
36964;BME280;22878;48.616;35.326;2023-04-27T04:39:47;100230.20;;;14.75;100.00
36964;BME280;22878;48.616;35.326;2023-04-27T04:42:13;100230.69;;;14.81;100.00
36964;BME280;22878;48.616;35.326;2023-04-27T04:44:38;100232.20;;;14.88;100.00
36964;BME280;22878;48.616;35.326;2023-04-27T04:47:04;100223.77;;;14.90;100.00
36964;BME280;22878;48.616;35.326;2023-04-27T04:49:31;100221.32;;;14.96;100.00
36964;BME280;22878;48.616;35.326;2023-04-27T04:51:56;100227.19;;;14.98;100.00
36964;BME280;22878;48.616;35.326;2023-04-27T04:54:22;100232.04;;;14.97;100.00
36964;BME280;22878;48.616;35.326;2023-04-27T04:56:50;100224.86;;;15.02;100.00
36964;BME280;22878;48.616;35.326;2023-04-27T04:59:16;100223.79;;;15.04;100.00
36964;BME280;22878;48.616;35.326;2023-04-27T05:01:41;100217.86;;;15.04;100.00
36964;BME280;22878;48.616;35.326;2023-04-27T05:04:07;100209.54;;;15.05;100.00
36964;BME280;22878;48.616;35.326;2023-04-27T05:06:33;100203.40;;;15.06;100.00
36964;BME280;22878;48.616;35.326;2023-04-27T05:08:58;100197.44;;;15.05;100.00
36964;BME280;22878;48.616;35.326;2023-04-27T05:11:24;100193.57;;;15.04;100.00
36964;BME280;22878;48.616;35.326;2023-04-27T05:13:49;100191.47;;;15.05;100.00
36964;BME280;22878;48.616;35.326;2023-04-27T05:16:15;100183.31;;;15.09;100.00
36964;BME280;22878;48.616;35.326;2023-04-27T05:18:40;100185.58;;;15.13;100.00
36964;BME280;22878;48.616;35.326;2023-04-27T05:21:13;100180.11;;;15.18;100.00
36964;BME280;22878;48.616;35.326;2023-04-27T05:23:39;100197.06;;;15.20;100.00
36964;BME280;22878;48.616;35.326;2023-04-27T05:26:13;100197.72;;;15.19;100.00
36964;BME280;22878;48.616;35.326;2023-04-27T05:28:39;100220.56;;;15.17;100.00
36964;BME280;22878;48.616;35.326;2023-04-27T05:31:04;100209.98;;;15.17;100.00
36964;BME280;22878;48.616;35.326;2023-04-27T05:33:32;100210.20;;;15.23;100.00
36964;BME280;22878;48.616;35.326;2023-04-27T05:35:58;100197.70;;;15.27;100.00
36964;BME280;22878;48.616;35.326;2023-04-27T05:38:24;100185.84;;;15.30;100.00
36964;BME280;22878;48.616;35.326;2023-04-27T05:40:54;100180.21;;;15.35;100.00
36964;BME280;22878;48.616;35.326;2023-04-27T05:43:20;100178.02;;;15.44;100.00
36964;BME280;22878;48.616;35.326;2023-04-27T05:45:46;100177.27;;;15.57;100.00
36964;BME280;22878;48.616;35.326;2023-04-27T05:48:12;100179.42;;;15.69;100.00
36964;BME280;22878;48.616;35.326;2023-04-27T05:50:38;100175.63;;;15.92;100.00
36964;BME280;22878;48.616;35.326;2023-04-27T05:53:04;100171.19;;;16.03;100.00
36964;BME280;22878;48.616;35.326;2023-04-27T05:55:30;100162.09;;;16.16;100.00
36964;BME280;22878;48.616;35.326;2023-04-27T05:57:56;100157.91;;;16.43;100.00
36964;BME280;22878;48.616;35.326;2023-04-27T06:00:21;100158.70;;;17.00;100.00
36964;BME280;22878;48.616;35.326;2023-04-27T06:02:47;100166.60;;;17.49;100.00
36964;BME280;22878;48.616;35.326;2023-04-27T06:05:13;100154.66;;;17.68;100.00
36964;BME280;22878;48.616;35.326;2023-04-27T06:07:39;100156.56;;;17.87;100.00
36964;BME280;22878;48.616;35.326;2023-04-27T06:10:06;100155.06;;;17.88;100.00
36964;BME280;22878;48.616;35.326;2023-04-27T06:12:32;100166.52;;;17.95;100.00
36964;BME280;22878;48.616;35.326;2023-04-27T06:14:57;100166.52;;;18.02;100.00
36964;BME280;22878;48.616;35.326;2023-04-27T06:17:23;100170.52;;;18.40;100.00
36964;BME280;22878;48.616;35.326;2023-04-27T06:19:49;100166.73;;;18.66;100.00
36964;BME280;22878;48.616;35.326;2023-04-27T06:22:14;100162.39;;;18.72;100.00
36964;BME280;22878;48.616;35.326;2023-04-27T06:24:40;100154.90;;;18.75;100.00
36964;BME280;22878;48.616;35.326;2023-04-27T06:27:06;100153.02;;;19.03;100.00
36964;BME280;22878;48.616;35.326;2023-04-27T06:29:32;100151.59;;;19.25;100.00
36964;BME280;22878;48.616;35.326;2023-04-27T06:31:58;100153.81;;;19.30;100.00
36964;BME280;22878;48.616;35.326;2023-04-27T06:34:23;100151.70;;;19.82;100.00
36964;BME280;22878;48.616;35.326;2023-04-27T06:36:49;100155.42;;;20.55;100.00
36964;BME280;22878;48.616;35.326;2023-04-27T06:39:15;100168.21;;;20.48;100.00
36964;BME280;22878;48.616;35.326;2023-04-27T06:41:40;100162.69;;;20.25;100.00
36964;BME280;22878;48.616;35.326;2023-04-27T06:44:06;100158.17;;;20.29;100.00
36964;BME280;22878;48.616;35.326;2023-04-27T06:46:31;100156.21;;;20.66;100.00
36964;BME280;22878;48.616;35.326;2023-04-27T06:48:57;100148.95;;;20.90;100.00
36964;BME280;22878;48.616;35.326;2023-04-27T06:51:23;100148.80;;;20.99;98.56
36964;BME280;22878;48.616;35.326;2023-04-27T06:53:48;100145.84;;;20.90;94.50
36964;BME280;22878;48.616;35.326;2023-04-27T06:56:14;100144.25;;;20.75;98.85
36964;BME280;22878;48.616;35.326;2023-04-27T06:58:40;100142.41;;;21.17;100.00
36964;BME280;22878;48.616;35.326;2023-04-27T07:01:06;100139.60;;;21.62;97.85
36964;BME280;22878;48.616;35.326;2023-04-27T07:03:34;100140.30;;;21.53;93.30
36964;BME280;22878;48.616;35.326;2023-04-27T07:06:00;100142.81;;;21.43;94.51
36964;BME280;22878;48.616;35.326;2023-04-27T07:08:26;100146.20;;;21.54;93.92
36964;BME280;22878;48.616;35.326;2023-04-27T07:10:51;100147.44;;;21.85;91.17
36964;BME280;22878;48.616;35.326;2023-04-27T07:13:17;100144.98;;;21.66;88.75
36964;BME280;22878;48.616;35.326;2023-04-27T07:15:43;100147.52;;;21.93;91.78
36964;BME280;22878;48.616;35.326;2023-04-27T07:18:08;100150.19;;;22.22;87.09
36964;BME280;22878;48.616;35.326;2023-04-27T07:20:36;100147.66;;;21.98;83.66
36964;BME280;22878;48.616;35.326;2023-04-27T07:23:02;100147.96;;;21.45;84.44
36964;BME280;22878;48.616;35.326;2023-04-27T07:25:28;100147.16;;;21.11;87.51
36964;BME280;22878;48.616;35.326;2023-04-27T07:27:53;100148.25;;;21.23;90.32
36964;BME280;22878;48.616;35.326;2023-04-27T07:30:19;100144.06;;;21.56;91.13
36964;BME280;22878;48.616;35.326;2023-04-27T07:32:45;100141.02;;;21.99;89.09
36964;BME280;22878;48.616;35.326;2023-04-27T07:35:12;100135.25;;;22.74;88.23
36964;BME280;22878;48.616;35.326;2023-04-27T07:37:38;100118.41;;;24.28;81.39
36964;BME280;22878;48.616;35.326;2023-04-27T07:40:05;100114.77;;;25.15;73.22
36964;BME280;22878;48.616;35.326;2023-04-27T07:42:38;100111.02;;;26.16;68.29
36964;BME280;22878;48.616;35.326;2023-04-27T07:45:24;100110.31;;;26.95;62.80
36964;BME280;22878;48.616;35.326;2023-04-27T07:47:59;100108.91;;;27.48;60.91
36964;BME280;22878;48.616;35.326;2023-04-27T07:50:27;100103.77;;;28.42;58.57
36964;BME280;22878;48.616;35.326;2023-04-27T07:52:54;100103.04;;;28.99;54.95
36964;BME280;22878;48.616;35.326;2023-04-27T07:55:21;100094.02;;;29.32;53.66
36964;BME280;22878;48.616;35.326;2023-04-27T07:57:54;100087.00;;;30.15;52.86
36964;BME280;22878;48.616;35.326;2023-04-27T08:00:20;100084.65;;;30.52;49.14
36964;BME280;22878;48.616;35.326;2023-04-27T08:02:47;100078.23;;;30.84;47.95
36964;BME280;22878;48.616;35.326;2023-04-27T08:05:13;100079.42;;;31.24;48.25
36964;BME280;22878;48.616;35.326;2023-04-27T08:07:39;100078.01;;;32.11;46.69
36964;BME280;22878;48.616;35.326;2023-04-27T08:10:06;100074.27;;;32.76;45.99
36964;BME280;22878;48.616;35.326;2023-04-27T08:12:32;100074.88;;;32.81;41.72
36964;BME280;22878;48.616;35.326;2023-04-27T08:14:58;100082.27;;;31.98;42.01
36964;BME280;22878;48.616;35.326;2023-04-27T08:17:24;100084.01;;;31.52;41.99
36964;BME280;22878;48.616;35.326;2023-04-27T08:19:50;100075.27;;;31.51;43.62
36964;BME280;22878;48.616;35.326;2023-04-27T08:22:16;100076.86;;;31.63;42.31
36964;BME280;22878;48.616;35.326;2023-04-27T08:24:41;100086.08;;;31.11;42.68
36964;BME280;22878;48.616;35.326;2023-04-27T08:27:07;100082.87;;;30.90;42.70
36964;BME280;22878;48.616;35.326;2023-04-27T08:29:33;100082.74;;;30.52;41.64
36964;BME280;22878;48.616;35.326;2023-04-27T08:32:00;100082.48;;;30.44;41.77
36964;BME280;22878;48.616;35.326;2023-04-27T08:34:27;100084.42;;;29.94;41.19
36964;BME280;22878;48.616;35.326;2023-04-27T08:36:52;100078.77;;;29.54;42.26
36964;BME280;22878;48.616;35.326;2023-04-27T08:39:19;100084.42;;;29.41;43.09
36964;BME280;22878;48.616;35.326;2023-04-27T08:41:45;100081.19;;;29.66;43.08
36964;BME280;22878;48.616;35.326;2023-04-27T08:44:11;100079.20;;;29.68;42.12
36964;BME280;22878;48.616;35.326;2023-04-27T08:46:37;100079.54;;;29.84;42.96
36964;BME280;22878;48.616;35.326;2023-04-27T08:49:02;100074.46;;;29.62;42.37
36964;BME280;22878;48.616;35.326;2023-04-27T08:51:28;100074.55;;;28.92;42.95
36964;BME280;22878;48.616;35.326;2023-04-27T08:53:56;100069.98;;;28.24;45.06
36964;BME280;22878;48.616;35.326;2023-04-27T08:56:25;100070.00;;;28.01;45.76
36964;BME280;22878;48.616;35.326;2023-04-27T08:58:52;100066.33;;;27.74;45.84
36964;BME280;22878;48.616;35.326;2023-04-27T09:01:18;100065.41;;;27.51;46.82
36964;BME280;22878;48.616;35.326;2023-04-27T09:03:45;100068.48;;;27.46;46.73
36964;BME280;22878;48.616;35.326;2023-04-27T09:06:12;100065.44;;;26.84;47.60
36964;BME280;22878;48.616;35.326;2023-04-27T09:08:48;100067.66;;;26.13;48.85
36964;BME280;22878;48.616;35.326;2023-04-27T09:11:15;100061.89;;;25.58;51.28
36964;BME280;22878;48.616;35.326;2023-04-27T09:13:52;100067.90;;;25.48;51.95
36964;BME280;22878;48.616;35.326;2023-04-27T09:16:22;100065.73;;;25.41;52.51
36964;BME280;22878;48.616;35.326;2023-04-27T09:18:47;100070.85;;;26.37;51.95
36964;BME280;22878;48.616;35.326;2023-04-27T09:21:29;100072.27;;;26.36;50.95
36964;BME280;22878;48.616;35.326;2023-04-27T09:23:55;100069.48;;;26.27;51.90
36964;BME280;22878;48.616;35.326;2023-04-27T09:26:26;100067.55;;;26.92;51.28
36964;BME280;22878;48.616;35.326;2023-04-27T09:28:54;100061.45;;;27.82;49.74
36964;BME280;22878;48.616;35.326;2023-04-27T09:31:32;100061.48;;;28.42;48.46
36964;BME280;22878;48.616;35.326;2023-04-27T09:33:58;100057.91;;;28.16;47.46
36964;BME280;22878;48.616;35.326;2023-04-27T09:36:24;100056.98;;;27.88;48.23
36964;BME280;22878;48.616;35.326;2023-04-27T09:38:52;100053.07;;;28.03;48.10
36964;BME280;22878;48.616;35.326;2023-04-27T09:41:18;100046.36;;;28.57;47.97
36964;BME280;22878;48.616;35.326;2023-04-27T09:43:45;100042.02;;;29.26;46.84
36964;BME280;22878;48.616;35.326;2023-04-27T09:46:12;100038.34;;;29.82;46.87
36964;BME280;22878;48.616;35.326;2023-04-27T09:48:39;100040.54;;;30.52;46.52
36964;BME280;22878;48.616;35.326;2023-04-27T09:51:05;100042.18;;;31.26;44.36
36964;BME280;22878;48.616;35.326;2023-04-27T09:53:51;100042.67;;;31.60;42.47
36964;BME280;22878;48.616;35.326;2023-04-27T09:56:59;100037.98;;;31.42;41.97
36964;BME280;22878;48.616;35.326;2023-04-27T09:59:35;100032.94;;;31.36;40.71
36964;BME280;22878;48.616;35.326;2023-04-27T10:02:09;100039.71;;;31.25;40.60
36964;BME280;22878;48.616;35.326;2023-04-27T10:07:12;100032.80;;;30.75;40.13
36964;BME280;22878;48.616;35.326;2023-04-27T10:09:43;100038.18;;;30.38;40.98
36964;BME280;22878;48.616;35.326;2023-04-27T10:14:52;100032.69;;;29.85;41.20
36964;BME280;22878;48.616;35.326;2023-04-27T10:17:32;100027.32;;;29.62;41.83
36964;BME280;22878;48.616;35.326;2023-04-27T10:22:45;100025.48;;;29.58;42.72
36964;BME280;22878;48.616;35.326;2023-04-27T10:25:28;100029.30;;;29.61;42.55
36964;BME280;22878;48.616;35.326;2023-04-27T10:27:59;100026.73;;;29.73;43.57
36964;BME280;22878;48.616;35.326;2023-04-27T10:30:38;100031.46;;;30.05;43.13
36964;BME280;22878;48.616;35.326;2023-04-27T10:33:08;100029.92;;;30.38;42.19
36964;BME280;22878;48.616;35.326;2023-04-27T10:35:38;100031.46;;;30.55;41.22
36964;BME280;22878;48.616;35.326;2023-04-27T10:38:16;100032.75;;;30.53;41.75
36964;BME280;22878;48.616;35.326;2023-04-27T10:40:52;100034.71;;;30.76;40.95
36964;BME280;22878;48.616;35.326;2023-04-27T10:43:23;100033.98;;;30.77;40.70
36964;BME280;22878;48.616;35.326;2023-04-27T10:45:49;100032.44;;;30.91;40.51
36964;BME280;22878;48.616;35.326;2023-04-27T10:48:15;100033.80;;;30.98;39.96
36964;BME280;22878;48.616;35.326;2023-04-27T10:50:41;100032.55;;;30.97;39.89
36964;BME280;22878;48.616;35.326;2023-04-27T10:53:09;100034.20;;;30.61;39.76
36964;BME280;22878;48.616;35.326;2023-04-27T10:55:35;100031.69;;;30.37;39.74
36964;BME280;22878;48.616;35.326;2023-04-27T10:58:01;100031.30;;;30.23;39.57
36964;BME280;22878;48.616;35.326;2023-04-27T11:00:31;100031.83;;;30.14;39.18
36964;BME280;22878;48.616;35.326;2023-04-27T11:03:09;100029.17;;;29.77;39.30
36964;BME280;22878;48.616;35.326;2023-04-27T11:08:57;100027.31;;;29.41;40.00
36964;BME280;22878;48.616;35.326;2023-04-27T11:11:23;100023.48;;;29.46;40.40
36964;BME280;22878;48.616;35.326;2023-04-27T11:13:50;100028.45;;;29.78;40.77
36964;BME280;22878;48.616;35.326;2023-04-27T11:16:20;100029.73;;;30.05;40.00
36964;BME280;22878;48.616;35.326;2023-04-27T11:18:45;100022.10;;;30.07;40.64
36964;BME280;22878;48.616;35.326;2023-04-27T11:21:15;100024.86;;;30.22;40.60
36964;BME280;22878;48.616;35.326;2023-04-27T11:23:42;100023.90;;;30.25;39.56
36964;BME280;22878;48.616;35.326;2023-04-27T11:26:28;100024.52;;;30.28;39.66
36964;BME280;22878;48.616;35.326;2023-04-27T11:31:26;100024.28;;;30.49;39.24
36964;BME280;22878;48.616;35.326;2023-04-27T11:33:53;100024.26;;;30.43;37.86
36964;BME280;22878;48.616;35.326;2023-04-27T11:36:22;100017.80;;;30.22;37.52
36964;BME280;22878;48.616;35.326;2023-04-27T11:38:48;100021.27;;;30.10;38.74
36964;BME280;22878;48.616;35.326;2023-04-27T11:41:14;100013.74;;;30.09;38.46
36964;BME280;22878;48.616;35.326;2023-04-27T11:43:42;100012.01;;;30.21;38.34
36964;BME280;22878;48.616;35.326;2023-04-27T11:46:10;100011.33;;;30.38;38.69
36964;BME280;22878;48.616;35.326;2023-04-27T11:48:36;100007.80;;;30.70;38.24
36964;BME280;22878;48.616;35.326;2023-04-27T11:51:03;100007.06;;;30.93;37.45
36964;BME280;22878;48.616;35.326;2023-04-27T11:53:33;100006.36;;;30.99;36.73
36964;BME280;22878;48.616;35.326;2023-04-27T11:56:01;100005.31;;;30.99;35.94
36964;BME280;22878;48.616;35.326;2023-04-27T11:58:27;100013.45;;;30.96;36.08
36964;BME280;22878;48.616;35.326;2023-04-27T12:00:57;100009.45;;;30.83;35.09
36964;BME280;22878;48.616;35.326;2023-04-27T12:03:23;100012.03;;;30.79;35.82
36964;BME280;22878;48.616;35.326;2023-04-27T12:05:50;100008.45;;;30.80;36.15
36964;BME280;22878;48.616;35.326;2023-04-27T12:08:17;100010.36;;;30.50;36.05
36964;BME280;22878;48.616;35.326;2023-04-27T12:10:43;100005.66;;;30.20;36.73
36964;BME280;22878;48.616;35.326;2023-04-27T12:13:09;100011.82;;;29.87;37.11
36964;BME280;22878;48.616;35.326;2023-04-27T12:15:36;100006.69;;;29.65;37.20
36964;BME280;22878;48.616;35.326;2023-04-27T12:18:01;100005.30;;;29.52;37.29
36964;BME280;22878;48.616;35.326;2023-04-27T12:20:27;100006.49;;;29.32;37.69
36964;BME280;22878;48.616;35.326;2023-04-27T12:22:53;100011.63;;;29.04;37.84
36964;BME280;22878;48.616;35.326;2023-04-27T12:25:18;100012.60;;;28.77;38.31
36964;BME280;22878;48.616;35.326;2023-04-27T12:27:44;100015.00;;;28.64;38.57
36964;BME280;22878;48.616;35.326;2023-04-27T12:30:12;100018.24;;;28.52;39.17
36964;BME280;22878;48.616;35.326;2023-04-27T12:32:39;100016.02;;;28.50;39.22
36964;BME280;22878;48.616;35.326;2023-04-27T12:35:08;100013.02;;;28.49;39.08
36964;BME280;22878;48.616;35.326;2023-04-27T12:37:35;100014.89;;;28.38;38.71
36964;BME280;22878;48.616;35.326;2023-04-27T12:40:01;100008.61;;;28.24;38.59
36964;BME280;22878;48.616;35.326;2023-04-27T12:42:30;100006.63;;;28.19;38.30
36964;BME280;22878;48.616;35.326;2023-04-27T12:44:56;100002.20;;;28.19;38.54
36964;BME280;22878;48.616;35.326;2023-04-27T12:47:22;100004.73;;;28.12;38.27
36964;BME280;22878;48.616;35.326;2023-04-27T12:49:48;100004.48;;;28.06;38.48